createdAt,value
2023-01-04T00:01:15.702Z,2.62
2023-01-04T00:02:47.888Z,2.59
2023-01-04T00:04:20.097Z,2.61
2023-01-04T00:05:52.122Z,2.57
2023-01-04T00:09:19.166Z,2.46
2023-01-04T00:10:51.169Z,2.44
2023-01-04T00:12:23.485Z,2.48
2023-01-04T00:13:57.957Z,2.49
2023-01-04T00:15:30.310Z,2.52
2023-01-04T00:17:02.412Z,2.50
2023-01-04T00:18:35.310Z,2.53
2023-01-04T00:20:07.768Z,2.52
2023-01-04T00:21:40.037Z,2.49
2023-01-04T00:23:12.058Z,2.50
2023-01-04T00:24:44.045Z,2.52
2023-01-04T00:26:47.750Z,2.42
2023-01-04T00:28:19.808Z,2.54
2023-01-04T00:29:51.820Z,2.53
2023-01-04T00:31:25.210Z,2.57
2023-01-04T00:33:00.422Z,2.60
2023-01-04T00:34:32.446Z,2.59
2023-01-04T00:36:10.071Z,2.65
2023-01-04T00:37:45.677Z,2.65
2023-01-04T00:39:21.056Z,2.70
2023-01-04T00:40:53.100Z,2.69
2023-01-04T00:42:25.139Z,2.63
2023-01-04T00:43:57.125Z,2.54
2023-01-04T00:45:29.167Z,2.51
2023-01-04T00:47:02.896Z,2.50
2023-01-04T00:48:40.076Z,2.49
2023-01-04T00:50:13.451Z,2.49
2023-01-04T00:51:45.424Z,2.42
2023-01-04T00:53:18.549Z,2.45
2023-01-04T00:54:50.591Z,2.43
2023-01-04T00:56:22.651Z,2.40
2023-01-04T00:57:54.568Z,2.39
2023-01-04T00:59:26.545Z,2.40
2023-01-04T01:02:50.646Z,2.37
2023-01-04T01:04:24.540Z,2.39
2023-01-04T01:05:56.659Z,2.36
2023-01-04T01:07:28.782Z,2.39
2023-01-04T01:09:01.443Z,2.39
2023-01-04T01:10:34.893Z,2.42
2023-01-04T01:12:06.873Z,2.35
2023-01-04T01:13:39.573Z,2.32
2023-01-04T01:15:12.101Z,2.32
2023-01-04T01:16:54.894Z,2.36
2023-01-04T01:18:29.070Z,2.46
2023-01-04T01:20:01.343Z,2.34
2023-01-04T01:21:33.442Z,2.34
2023-01-04T01:23:05.554Z,2.32
2023-01-04T01:24:37.684Z,2.29
2023-01-04T01:26:13.560Z,2.33
2023-01-04T01:27:45.525Z,2.29
2023-01-04T01:29:17.575Z,2.33
2023-01-04T01:30:49.610Z,2.36
2023-01-04T01:32:21.629Z,2.41
2023-01-04T01:33:55.208Z,2.47
2023-01-04T01:35:27.084Z,2.53
2023-01-04T01:36:59.033Z,2.45
2023-01-04T01:38:33.714Z,2.43
2023-01-04T01:40:06.289Z,2.44
2023-01-04T01:41:38.609Z,2.44
2023-01-04T01:43:21.981Z,2.51
2023-01-04T01:45:11.511Z,2.47
2023-01-04T01:46:49.876Z,2.38
2023-01-04T01:48:28.555Z,2.32
2023-01-04T01:50:00.750Z,2.30
2023-01-04T01:51:34.293Z,2.34
2023-01-04T01:53:06.421Z,2.41
2023-01-04T01:54:52.810Z,2.40
2023-01-04T01:56:26.643Z,2.33
2023-01-04T01:57:59.153Z,2.23
2023-01-04T01:59:32.906Z,2.20
2023-01-04T02:01:05.231Z,2.13
2023-01-04T02:02:39.862Z,2.13
2023-01-04T02:04:14.758Z,2.07
2023-01-04T02:05:49.966Z,2.08
2023-01-04T02:07:24.544Z,2.09
2023-01-04T02:08:56.566Z,2.09
2023-01-04T02:10:28.877Z,2.09
2023-01-04T02:12:01.105Z,2.11
2023-01-04T02:13:54.003Z,2.15
2023-01-04T02:15:29.001Z,2.15
2023-01-04T02:17:24.640Z,2.16
2023-01-04T02:19:28.989Z,2.14
2023-01-04T02:21:07.640Z,2.16
2023-01-04T02:23:08.764Z,2.19
2023-01-04T02:24:55.741Z,2.16
2023-01-04T02:26:46.284Z,2.16
2023-01-04T02:28:39.813Z,2.16
2023-01-04T02:31:00.199Z,2.12
2023-01-04T02:33:10.348Z,2.08
2023-01-04T02:35:19.133Z,2.03
2023-01-04T02:37:37.176Z,1.97
2023-01-04T02:39:33.894Z,1.96
2023-01-04T02:41:15.491Z,1.95
2023-01-04T02:43:46.040Z,2.02
2023-01-04T02:45:22.950Z,2.04
2023-01-04T02:47:10.985Z,2.05
2023-01-04T02:49:01.691Z,2.03
2023-01-04T02:50:41.054Z,2.03
2023-01-04T02:52:13.280Z,2.01
2023-01-04T02:53:45.275Z,1.96
2023-01-04T02:55:17.442Z,1.87
2023-01-04T02:57:05.268Z,1.78
2023-01-04T02:59:02.452Z,1.78
2023-01-04T03:01:23.749Z,1.78
2023-01-04T03:03:33.411Z,1.76
2023-01-04T03:05:55.515Z,1.71
2023-01-04T03:07:46.031Z,1.68
2023-01-04T03:09:24.017Z,1.70
2023-01-04T03:11:03.374Z,1.70
2023-01-04T03:12:41.815Z,1.72
2023-01-04T03:14:32.188Z,1.72
2023-01-04T03:16:09.675Z,1.67
2023-01-04T03:17:47.518Z,1.66
2023-01-04T03:19:46.157Z,1.68
2023-01-04T03:21:19.663Z,1.72
2023-01-04T03:23:13.645Z,1.75
2023-01-04T03:25:04.503Z,1.75
2023-01-04T03:27:05.964Z,1.84
2023-01-04T03:28:57.155Z,1.85
2023-01-04T03:30:49.462Z,1.90
2023-01-04T03:32:48.634Z,1.91
2023-01-04T03:34:39.455Z,1.88
2023-01-04T03:36:29.955Z,1.88
2023-01-04T03:38:45.221Z,1.86
2023-01-04T03:40:48.066Z,1.88
2023-01-04T03:42:49.496Z,1.84
2023-01-04T03:44:48.796Z,1.71
2023-01-04T03:46:52.358Z,1.73
2023-01-04T03:48:37.187Z,1.71
2023-01-04T03:50:58.693Z,1.74
2023-01-04T03:52:31.891Z,1.70
2023-01-04T03:54:08.052Z,1.76
2023-01-04T03:55:41.988Z,1.77
2023-01-04T03:57:14.997Z,1.80
2023-01-04T03:58:47.061Z,1.79
2023-01-04T04:00:19.756Z,1.78
2023-01-04T04:01:52.060Z,1.82
2023-01-04T04:05:34.927Z,1.91
2023-01-04T04:07:25.579Z,1.89
2023-01-04T04:08:57.582Z,1.87
2023-01-04T04:10:29.664Z,1.81
2023-01-04T04:12:01.709Z,1.77
2023-01-04T04:13:33.718Z,1.74
2023-01-04T04:15:06.317Z,1.73
2023-01-04T04:16:38.631Z,1.76
2023-01-04T04:18:10.744Z,1.76
2023-01-04T04:19:42.696Z,1.75
2023-01-04T04:21:15.123Z,1.75
2023-01-04T04:22:47.091Z,1.72
2023-01-04T04:24:22.278Z,1.77
2023-01-04T04:25:54.297Z,1.75
2023-01-04T04:27:26.426Z,1.76
2023-01-04T04:28:58.440Z,1.75
2023-01-04T04:30:30.466Z,1.75
2023-01-04T04:32:02.546Z,1.69
2023-01-04T04:33:34.859Z,1.64
2023-01-04T04:35:07.206Z,1.58
2023-01-04T04:36:39.514Z,1.52
2023-01-04T04:38:11.476Z,1.50
2023-01-04T04:39:43.479Z,1.51
2023-01-04T04:41:34.002Z,1.51
2023-01-04T04:43:08.780Z,1.59
2023-01-04T04:44:40.865Z,1.58
2023-01-04T04:46:13.197Z,1.57
2023-01-04T04:47:45.297Z,1.59
2023-01-04T04:49:17.783Z,1.58
2023-01-04T04:50:49.799Z,1.47
2023-01-04T04:52:21.775Z,1.42
2023-01-04T04:53:53.788Z,1.35
2023-01-04T04:55:25.770Z,1.29
2023-01-04T04:56:57.978Z,1.28
2023-01-04T04:58:30.045Z,1.25
2023-01-04T05:00:01.999Z,1.21
2023-01-04T05:01:34.734Z,1.22
2023-01-04T05:03:08.099Z,1.19
2023-01-04T05:04:40.176Z,1.20
2023-01-04T05:06:12.280Z,1.21
2023-01-04T05:07:44.269Z,1.25
2023-01-04T05:09:17.041Z,1.31
2023-01-04T05:10:51.366Z,1.34
2023-01-04T05:12:41.759Z,1.36
2023-01-04T05:14:13.871Z,1.41
2023-01-04T05:15:49.160Z,1.50
2023-01-04T05:17:21.119Z,1.51
2023-01-04T05:18:53.096Z,1.56
2023-01-04T05:20:25.288Z,1.60
2023-01-04T05:21:57.293Z,1.62
2023-01-04T05:23:29.354Z,1.65
2023-01-04T05:25:01.306Z,1.65
2023-01-04T05:26:33.609Z,1.69
2023-01-04T05:28:06.354Z,1.68
2023-01-04T05:29:56.691Z,1.74
2023-01-04T05:31:28.983Z,1.71
2023-01-04T05:33:01.831Z,1.67
2023-01-04T05:34:33.798Z,1.66
2023-01-04T05:36:08.938Z,1.67
2023-01-04T05:37:40.976Z,1.64
2023-01-04T05:39:13.053Z,1.66
2023-01-04T05:40:45.685Z,1.71
2023-01-04T05:42:28.688Z,1.75
2023-01-04T05:44:00.715Z,1.76
2023-01-04T05:45:32.960Z,1.78
2023-01-04T05:47:08.340Z,1.81
2023-01-04T05:48:43.200Z,1.84
2023-01-04T05:50:15.196Z,1.88
2023-01-04T05:51:47.178Z,1.95
2023-01-04T05:53:19.200Z,1.99
2023-01-04T05:54:51.224Z,1.99
2023-01-04T05:56:23.287Z,2.01
2023-01-04T05:57:55.357Z,2.07
2023-01-04T05:59:27.430Z,2.08
2023-01-04T06:00:59.446Z,2.13
2023-01-04T06:02:32.231Z,2.17
2023-01-04T06:04:04.497Z,2.12
2023-01-04T06:05:36.526Z,2.12
2023-01-04T06:07:08.558Z,2.12
2023-01-04T06:08:40.568Z,2.15
2023-01-04T06:10:13.736Z,2.22
2023-01-04T06:11:45.860Z,2.26
2023-01-04T06:13:17.874Z,2.29
2023-01-04T06:14:49.836Z,2.34
2023-01-04T06:16:21.925Z,2.32
2023-01-04T06:17:54.041Z,2.37
2023-01-04T06:19:26.271Z,2.42
2023-01-04T06:20:58.267Z,2.42
2023-01-04T06:22:30.799Z,2.47
2023-01-04T06:24:02.942Z,2.50
2023-01-04T06:25:34.932Z,2.51
2023-01-04T06:27:09.977Z,2.57
2023-01-04T06:28:42.145Z,2.58
2023-01-04T06:30:17.306Z,2.64
2023-01-04T06:31:49.319Z,2.63
2023-01-04T06:33:21.729Z,2.69
2023-01-04T06:34:53.767Z,2.72
2023-01-04T06:36:25.928Z,2.76
2023-01-04T06:37:57.952Z,2.83
2023-01-04T06:39:30.074Z,2.88
2023-01-04T06:41:02.081Z,2.89
2023-01-04T06:42:46.441Z,2.92
2023-01-04T06:44:18.655Z,2.92
2023-01-04T06:45:50.752Z,2.94
2023-01-04T06:47:22.943Z,2.93
2023-01-04T06:48:57.266Z,2.95
2023-01-04T06:50:29.310Z,2.94
2023-01-04T06:52:01.367Z,2.98
2023-01-04T06:53:33.399Z,3.00
2023-01-04T06:55:07.278Z,3.05
2023-01-04T06:56:40.529Z,3.09
2023-01-04T06:58:15.957Z,3.13
2023-01-04T06:59:48.043Z,3.15
2023-01-04T07:01:20.374Z,3.19
2023-01-04T07:03:13.474Z,3.23
2023-01-04T07:04:44.729Z,3.25
2023-01-04T07:06:17.116Z,3.29
2023-01-04T07:07:49.215Z,3.32
2023-01-04T07:09:21.212Z,3.35
2023-01-04T07:10:53.219Z,3.40
2023-01-04T07:12:25.478Z,3.43
2023-01-04T07:13:57.603Z,3.49
2023-01-04T07:15:38.952Z,3.56
2023-01-04T07:17:13.166Z,3.60
2023-01-04T07:18:45.385Z,3.64
2023-01-04T07:20:18.248Z,3.67
2023-01-04T07:21:50.413Z,3.64
2023-01-04T07:23:22.403Z,3.70
2023-01-04T07:24:54.409Z,3.72
2023-01-04T07:26:26.425Z,3.76
2023-01-04T07:27:58.459Z,3.79
2023-01-04T07:29:30.397Z,3.82
2023-01-04T07:32:44.712Z,3.85
2023-01-04T07:34:18.461Z,3.94
2023-01-04T07:35:50.518Z,3.94
2023-01-04T07:37:22.587Z,3.98
2023-01-04T07:38:54.670Z,4.01
2023-01-04T07:40:28.006Z,4.05
2023-01-04T07:42:00.188Z,4.06
2023-01-04T07:43:32.365Z,4.11
2023-01-04T07:45:06.039Z,4.10
2023-01-04T07:46:38.251Z,4.12
2023-01-04T07:48:10.501Z,4.16
2023-01-04T07:49:42.582Z,4.19
2023-01-04T07:51:14.603Z,4.21
2023-01-04T07:52:46.607Z,4.26
2023-01-04T07:54:19.272Z,4.32
2023-01-04T07:55:56.365Z,4.38
2023-01-04T07:57:28.420Z,4.39
2023-01-04T07:59:00.484Z,4.42
2023-01-04T08:02:13.089Z,4.51
2023-01-04T08:03:46.420Z,4.54
2023-01-04T08:05:18.534Z,4.58
2023-01-04T08:06:50.890Z,4.58
2023-01-04T08:08:23.102Z,4.66
2023-01-04T08:09:55.103Z,4.69
2023-01-04T08:11:27.211Z,4.74
2023-01-04T08:13:00.332Z,4.77
2023-01-04T08:14:32.413Z,4.82
2023-01-04T08:16:04.827Z,4.86
2023-01-04T08:17:36.860Z,4.91
2023-01-04T08:19:17.071Z,4.98
2023-01-04T08:20:52.176Z,4.97
2023-01-04T08:22:28.634Z,5.02
2023-01-04T08:24:01.039Z,5.05
2023-01-04T08:25:33.068Z,5.09
2023-01-04T08:27:05.131Z,5.11
2023-01-04T08:28:37.323Z,5.16
2023-01-04T08:30:09.944Z,5.21
2023-01-04T08:31:42.106Z,5.23
2023-01-04T08:33:18.421Z,5.27
2023-01-04T08:34:50.394Z,5.30
2023-01-04T08:36:27.007Z,5.34
2023-01-04T08:38:28.377Z,5.38
2023-01-04T08:39:51.875Z,5.36
2023-01-04T08:41:55.929Z,5.37
2023-01-04T08:43:16.380Z,5.42
2023-01-04T08:44:48.569Z,5.46
2023-01-04T08:46:20.641Z,5.50
2023-01-04T08:47:52.656Z,5.55
2023-01-04T08:49:25.105Z,5.56
2023-01-04T08:51:00.161Z,5.58
2023-01-04T08:52:32.171Z,5.57
2023-01-04T08:54:04.440Z,5.62
2023-01-04T08:55:36.517Z,5.67
2023-01-04T08:57:08.633Z,5.71
2023-01-04T09:00:22.164Z,5.83
2023-01-04T09:01:57.394Z,5.89
2023-01-04T09:03:33.343Z,5.90
2023-01-04T09:05:05.893Z,5.96
2023-01-04T09:06:39.837Z,5.99
2023-01-04T09:08:12.057Z,6.00
2023-01-04T09:09:44.207Z,6.05
2023-01-04T09:11:18.950Z,6.10
2023-01-04T09:12:51.536Z,6.13
2023-01-04T09:14:23.630Z,6.16
2023-01-04T09:15:55.732Z,6.20
2023-01-04T09:17:27.862Z,6.25
2023-01-04T09:18:59.934Z,6.28
2023-01-04T09:20:32.015Z,6.33
2023-01-04T09:22:04.020Z,6.38
2023-01-04T09:23:37.119Z,6.40
2023-01-04T09:25:09.761Z,6.46
2023-01-04T09:26:41.756Z,6.49
2023-01-04T09:29:54.206Z,6.55
2023-01-04T09:31:28.532Z,6.66
2023-01-04T09:33:00.648Z,6.71
2023-01-04T09:34:32.742Z,6.74
2023-01-04T09:36:06.307Z,6.84
2023-01-04T09:37:38.354Z,6.87
2023-01-04T09:39:16.832Z,6.95
2023-01-04T09:41:19.512Z,7.05
2023-01-04T09:43:20.300Z,7.22
2023-01-04T09:45:22.666Z,7.35
2023-01-04T09:46:43.769Z,7.57
2023-01-04T09:48:25.170Z,7.70
2023-01-04T09:50:07.329Z,7.86
2023-01-04T09:51:41.876Z,8.00
2023-01-04T09:53:22.061Z,8.15
2023-01-04T09:55:02.832Z,8.26
2023-01-04T09:56:59.006Z,8.40
2023-01-04T10:00:20.690Z,8.57
2023-01-04T10:01:56.989Z,8.60
2023-01-04T10:03:33.223Z,8.64
2023-01-04T10:05:06.271Z,8.65
2023-01-04T10:06:38.520Z,8.70
2023-01-04T10:08:17.124Z,8.78
2023-01-04T10:09:49.193Z,8.75
2023-01-04T10:11:49.386Z,8.78
2023-01-04T10:13:27.439Z,8.80
2023-01-04T10:15:30.952Z,8.80
2023-01-04T10:18:29.881Z,8.85
2023-01-04T10:21:52.112Z,8.91
2023-01-04T10:23:35.902Z,8.95
2023-01-04T10:25:21.523Z,8.96
2023-01-04T10:27:00.738Z,9.00
2023-01-04T10:29:03.167Z,9.03
2023-01-04T10:30:53.610Z,9.05
2023-01-04T10:32:31.409Z,9.07
2023-01-04T10:34:22.325Z,9.09
2023-01-04T10:35:54.641Z,9.03
2023-01-04T10:37:34.270Z,9.11
2023-01-04T10:39:14.211Z,9.10
2023-01-04T10:40:48.838Z,9.09
2023-01-04T10:42:53.220Z,9.15
2023-01-04T10:44:49.503Z,9.18
2023-01-04T10:46:27.670Z,9.19
2023-01-04T10:48:11.646Z,9.22
2023-01-04T10:49:45.040Z,9.26
2023-01-04T10:51:25.120Z,9.24
2023-01-04T10:53:18.416Z,9.22
2023-01-04T10:54:55.050Z,9.21
2023-01-04T10:56:45.897Z,9.15
2023-01-04T10:58:30.070Z,9.19
2023-01-04T11:00:13.753Z,9.17
2023-01-04T11:01:52.880Z,9.16
2023-01-04T11:03:46.289Z,9.19
2023-01-04T11:05:25.686Z,9.20
2023-01-04T11:07:03.491Z,9.18
2023-01-04T11:08:56.799Z,9.22
2023-01-04T11:10:37.736Z,9.19
2023-01-04T11:12:12.935Z,9.15
2023-01-04T11:13:45.119Z,9.11
2023-01-04T11:15:17.276Z,9.10
2023-01-04T11:16:51.213Z,9.12
2023-01-04T11:18:23.575Z,9.06
2023-01-04T11:19:55.994Z,9.05
2023-01-04T11:21:30.045Z,9.06
2023-01-04T11:23:04.605Z,9.09
2023-01-04T11:24:37.560Z,9.08
2023-01-04T11:26:22.487Z,9.10
2023-01-04T11:29:53.195Z,9.09
2023-01-04T11:31:34.035Z,9.06
2023-01-04T11:33:18.320Z,9.08
2023-01-04T11:34:54.496Z,9.02
2023-01-04T11:36:35.673Z,9.06
2023-01-04T11:38:13.503Z,9.06
2023-01-04T11:39:45.503Z,9.03
2023-01-04T11:41:18.607Z,9.03
2023-01-04T11:43:12.544Z,9.06
2023-01-04T11:44:58.991Z,9.07
2023-01-04T11:46:32.791Z,9.06
2023-01-04T11:48:14.544Z,9.02
2023-01-04T11:49:47.489Z,9.05
2023-01-04T11:51:29.096Z,9.10
2023-01-04T11:53:02.323Z,9.09
2023-01-04T11:54:34.402Z,9.08
2023-01-04T11:56:23.586Z,9.14
2023-01-04T11:59:34.973Z,9.07
2023-01-04T12:01:07.127Z,9.07
2023-01-04T12:04:35.628Z,9.14
2023-01-04T12:06:38.561Z,9.21
2023-01-04T12:08:28.140Z,9.15
2023-01-04T12:10:01.706Z,9.15
2023-01-04T12:11:37.508Z,9.18
2023-01-04T12:13:10.756Z,9.20
2023-01-04T12:14:48.144Z,9.23
2023-01-04T12:16:27.159Z,9.25
2023-01-04T12:18:04.333Z,9.25
2023-01-04T12:19:37.179Z,9.26
2023-01-04T12:21:21.945Z,9.28
2023-01-04T12:22:54.156Z,9.27
2023-01-04T12:24:31.772Z,9.31
2023-01-04T12:26:03.824Z,9.30
2023-01-04T12:27:36.912Z,9.30
2023-01-04T12:29:23.975Z,9.39
2023-01-04T12:30:56.018Z,9.38
2023-01-04T12:32:28.149Z,9.39
2023-01-04T12:34:21.252Z,9.31
2023-01-04T12:36:02.466Z,9.40
2023-01-04T12:37:48.753Z,9.43
2023-01-04T12:39:29.742Z,9.43
2023-01-04T12:41:01.999Z,9.39
2023-01-04T12:42:34.076Z,9.40
2023-01-04T12:44:37.265Z,9.47
2023-01-04T12:46:50.184Z,9.50
2023-01-04T12:48:46.422Z,9.49
2023-01-04T12:50:23.609Z,9.48
2023-01-04T12:54:07.700Z,9.48
2023-01-04T12:55:44.162Z,9.45
2023-01-04T12:57:29.482Z,9.46
2023-01-04T12:59:25.275Z,9.47
2023-01-04T13:00:58.752Z,9.43
2023-01-04T13:02:48.026Z,9.45
2023-01-04T13:04:29.774Z,9.45
2023-01-04T13:06:04.394Z,9.42
2023-01-04T13:07:44.108Z,9.43
2023-01-04T13:09:25.239Z,9.45
2023-01-04T13:10:57.784Z,9.33
2023-01-04T13:12:32.727Z,9.15
2023-01-04T13:14:22.152Z,8.89
2023-01-04T13:15:57.141Z,8.74
2023-01-04T13:17:30.436Z,8.68
2023-01-04T13:19:03.998Z,8.66
2023-01-04T13:20:37.813Z,8.63
2023-01-04T13:22:30.367Z,8.63
2023-01-04T13:24:32.616Z,8.54
2023-01-04T13:28:02.228Z,8.42
2023-01-04T13:29:35.444Z,8.38
2023-01-04T13:31:07.721Z,8.32
2023-01-04T13:33:15.010Z,8.23
2023-01-04T13:34:38.946Z,8.30
2023-01-04T13:36:12.762Z,8.26
2023-01-04T13:37:46.758Z,8.25
2023-01-04T13:39:19.500Z,8.22
2023-01-04T13:40:51.523Z,8.16
2023-01-04T13:42:32.892Z,8.18
2023-01-04T13:44:12.441Z,8.09
2023-01-04T13:46:11.057Z,8.06
2023-01-04T13:47:43.987Z,8.06
2023-01-04T13:49:17.588Z,8.01
2023-01-04T13:51:11.338Z,8.04
2023-01-04T13:52:58.270Z,7.96
2023-01-04T13:54:36.740Z,7.96
2023-01-04T13:56:19.532Z,8.02
2023-01-04T13:58:01.521Z,8.04
2023-01-04T13:59:33.850Z,8.00
2023-01-04T14:01:12.140Z,7.98
2023-01-04T14:02:44.373Z,7.93
2023-01-04T14:04:29.376Z,7.83
2023-01-04T14:06:10.648Z,7.91
2023-01-04T14:07:43.768Z,7.92
2023-01-04T14:09:21.985Z,7.96
2023-01-04T14:10:54.076Z,7.89
2023-01-04T14:12:28.171Z,7.90
2023-01-04T14:14:00.228Z,7.91
2023-01-04T14:15:34.132Z,7.91
2023-01-04T14:17:18.287Z,7.90
2023-01-04T14:18:50.299Z,7.87
2023-01-04T14:20:25.293Z,7.88
2023-01-04T14:21:57.362Z,7.90
2023-01-04T14:23:39.045Z,7.91
2023-01-04T14:25:38.673Z,7.88
2023-01-04T14:27:33.637Z,7.84
2023-01-04T14:29:34.836Z,7.84
2023-01-04T14:31:10.046Z,7.85
2023-01-04T14:32:42.564Z,7.84
2023-01-04T14:34:14.977Z,7.85
2023-01-04T14:35:49.048Z,7.84
2023-01-04T14:37:22.099Z,7.87
2023-01-04T14:39:10.509Z,7.92
2023-01-04T14:40:42.623Z,7.90
2023-01-04T14:42:27.874Z,7.93
2023-01-04T14:44:00.010Z,7.91
2023-01-04T14:45:32.088Z,7.93
2023-01-04T14:47:06.628Z,7.91
2023-01-04T14:48:38.725Z,7.91
2023-01-04T14:50:13.696Z,7.96
2023-01-04T14:51:50.601Z,7.97
2023-01-04T14:53:22.632Z,7.93
2023-01-04T14:54:54.631Z,7.92
2023-01-04T14:56:26.677Z,7.93
2023-01-04T14:57:58.738Z,7.94
2023-01-04T14:59:30.821Z,7.92
2023-01-04T15:01:02.869Z,7.93
2023-01-04T15:02:35.092Z,7.93
2023-01-04T15:04:07.796Z,7.93
2023-01-04T15:05:41.051Z,7.94
2023-01-04T15:07:33.105Z,7.97
2023-01-04T15:09:05.472Z,7.89
2023-01-04T15:10:37.821Z,7.91
2023-01-04T15:12:09.929Z,7.89
2023-01-04T15:13:42.233Z,7.88
2023-01-04T15:15:14.376Z,7.88
2023-01-04T15:16:46.917Z,7.86
2023-01-04T15:18:19.326Z,7.89
2023-01-04T15:19:51.355Z,7.87
2023-01-04T15:21:23.365Z,7.85
2023-01-04T15:22:55.474Z,7.85
2023-01-04T15:24:27.453Z,7.84
2023-01-04T15:26:02.046Z,7.84
2023-01-04T15:27:39.985Z,7.83
2023-01-04T15:29:14.258Z,7.83
2023-01-04T15:32:19.193Z,7.81
2023-01-04T15:33:51.417Z,7.80
2023-01-04T15:35:23.507Z,7.78
2023-01-04T15:36:55.516Z,7.79
2023-01-04T15:38:27.790Z,7.78
2023-01-04T15:40:02.905Z,7.78
2023-01-04T15:41:53.992Z,7.77
2023-01-04T15:43:28.815Z,7.79
2023-01-04T15:45:05.884Z,7.79
2023-01-04T15:46:38.141Z,7.78
2023-01-04T15:48:11.257Z,7.79
2023-01-04T15:49:43.397Z,7.76
2023-01-04T15:51:15.490Z,7.77
2023-01-04T15:52:47.523Z,7.76
2023-01-04T15:54:22.092Z,7.77
2023-01-04T15:55:54.630Z,7.77
2023-01-04T15:57:26.637Z,7.76
2023-01-04T15:58:58.714Z,7.76
2023-01-04T16:00:30.740Z,7.77
2023-01-04T16:02:03.143Z,7.75
2023-01-04T16:03:36.389Z,7.77
2023-01-04T16:06:41.662Z,7.75
2023-01-04T16:08:13.693Z,7.76
2023-01-04T16:09:45.735Z,7.76
2023-01-04T16:11:22.173Z,7.79
2023-01-04T16:12:56.986Z,7.74
2023-01-04T16:14:29.413Z,7.74
2023-01-04T16:16:02.054Z,7.74
2023-01-04T16:17:34.222Z,7.72
2023-01-04T16:19:06.539Z,7.70
2023-01-04T16:20:41.769Z,7.73
2023-01-04T16:22:13.909Z,7.70
2023-01-04T16:23:50.661Z,7.73
2023-01-04T16:25:22.786Z,7.68
2023-01-04T16:26:54.894Z,7.69
2023-01-04T16:28:26.906Z,7.68
2023-01-04T16:30:00.184Z,7.69
2023-01-04T16:31:36.404Z,7.72
2023-01-04T16:33:08.452Z,7.70
2023-01-04T16:36:16.543Z,7.72
2023-01-04T16:37:48.684Z,7.70
2023-01-04T16:39:20.979Z,7.68
2023-01-04T16:41:03.031Z,7.74
2023-01-04T16:42:35.505Z,7.69
2023-01-04T16:44:07.783Z,7.65
2023-01-04T16:45:39.819Z,7.65
2023-01-04T16:47:12.124Z,7.63
2023-01-04T16:48:45.807Z,7.63
2023-01-04T16:50:17.965Z,7.64
2023-01-04T16:51:49.932Z,7.63
2023-01-04T16:53:21.928Z,7.64
2023-01-04T16:54:54.085Z,7.63
2023-01-04T16:56:26.401Z,7.65
2023-01-04T16:57:58.484Z,7.62
2023-01-04T16:59:30.645Z,7.64
2023-01-04T17:01:10.505Z,7.67
2023-01-04T17:02:42.520Z,7.66
2023-01-04T17:04:14.703Z,7.66
2023-01-04T17:05:46.936Z,7.66
2023-01-04T17:07:18.972Z,7.65
2023-01-04T17:08:53.413Z,7.69
2023-01-04T17:10:29.546Z,7.65
2023-01-04T17:13:55.730Z,7.65
2023-01-04T17:15:44.257Z,7.64
2023-01-04T17:17:16.763Z,7.62
2023-01-04T17:18:49.857Z,7.63
2023-01-04T17:20:21.861Z,7.60
2023-01-04T17:21:53.898Z,7.58
2023-01-04T17:23:27.184Z,7.58
2023-01-04T17:24:59.601Z,7.55
2023-01-04T17:26:32.999Z,7.50
2023-01-04T17:28:04.895Z,7.53
2023-01-04T17:29:36.981Z,7.47
2023-01-04T17:31:15.213Z,7.51
2023-01-04T17:32:47.292Z,7.47
2023-01-04T17:34:23.072Z,7.48
2023-01-04T17:35:55.437Z,7.48
2023-01-04T17:37:27.736Z,7.48
2023-01-04T17:40:38.727Z,7.49
2023-01-04T17:42:11.005Z,7.49
2023-01-04T17:43:44.845Z,7.52
2023-01-04T17:45:17.001Z,7.51
2023-01-04T17:46:49.039Z,7.51
2023-01-04T17:48:21.101Z,7.52
2023-01-04T17:49:53.145Z,7.50
2023-01-04T17:51:26.198Z,7.54
2023-01-04T17:52:59.547Z,7.54
2023-01-04T17:54:31.704Z,7.55
2023-01-04T17:56:06.240Z,7.58
2023-01-04T17:57:38.407Z,7.55
2023-01-04T17:59:12.133Z,7.54
2023-01-04T18:00:44.114Z,7.53
2023-01-04T18:02:16.228Z,7.52
2023-01-04T18:03:51.578Z,7.56
2023-01-04T18:05:23.826Z,7.56
2023-01-04T18:06:55.831Z,7.53
2023-01-04T18:11:46.745Z,7.57
2023-01-04T18:13:18.788Z,7.54
2023-01-04T18:14:53.095Z,7.56
2023-01-04T18:16:27.660Z,7.58
2023-01-04T18:17:59.862Z,7.53
2023-01-04T18:19:31.990Z,7.53
2023-01-04T18:21:30.309Z,7.57
2023-01-04T18:23:02.737Z,7.51
2023-01-04T18:24:37.777Z,7.49
2023-01-04T18:26:11.222Z,7.48
2023-01-04T18:27:43.361Z,7.46
2023-01-04T18:29:15.396Z,7.44
2023-01-04T18:30:48.650Z,7.43
2023-01-04T18:32:21.305Z,7.43
2023-01-04T18:33:54.949Z,7.44
2023-01-04T18:35:26.957Z,7.41
2023-01-04T18:36:59.015Z,7.40
2023-01-04T18:40:10.351Z,7.42
2023-01-04T18:41:42.413Z,7.40
2023-01-04T18:43:14.514Z,7.38
2023-01-04T18:44:49.342Z,7.41
2023-01-04T18:46:22.994Z,7.42
2023-01-04T18:47:55.114Z,7.42
2023-01-04T18:49:27.160Z,7.42
2023-01-04T18:51:06.567Z,7.46
2023-01-04T18:52:38.614Z,7.43
2023-01-04T18:54:10.751Z,7.40
2023-01-04T18:55:42.833Z,7.40
2023-01-04T18:57:15.040Z,7.41
2023-01-04T18:58:51.099Z,7.43
2023-01-04T19:00:29.975Z,7.40
2023-01-04T19:02:03.083Z,7.41
2023-01-04T19:03:42.082Z,7.45
2023-01-04T19:05:19.236Z,7.41
2023-01-04T19:06:51.251Z,7.40
2023-01-04T19:09:55.136Z,7.31
2023-01-04T19:11:27.248Z,7.32
2023-01-04T19:13:00.199Z,7.33
2023-01-04T19:14:32.157Z,7.30
2023-01-04T19:16:07.832Z,7.31
2023-01-04T19:17:39.947Z,7.29
2023-01-04T19:19:12.112Z,7.29
2023-01-04T19:20:44.133Z,7.30
2023-01-04T19:22:16.628Z,7.29
2023-01-04T19:23:49.402Z,7.30
2023-01-04T19:25:27.843Z,7.30
2023-01-04T19:27:05.499Z,7.30
2023-01-04T19:28:37.541Z,7.28
2023-01-04T19:30:10.101Z,7.31
2023-01-04T19:31:42.090Z,7.30
2023-01-04T19:33:14.294Z,7.30
2023-01-04T19:34:46.335Z,7.28
2023-01-04T19:36:19.459Z,7.30
2023-01-04T19:39:24.411Z,7.28
2023-01-04T19:41:00.575Z,7.28
2023-01-04T19:42:32.669Z,7.26
2023-01-04T19:44:07.684Z,7.25
2023-01-04T19:45:40.375Z,7.22
2023-01-04T19:47:12.477Z,7.22
2023-01-04T19:48:44.890Z,7.20
2023-01-04T19:50:17.096Z,7.17
2023-01-04T19:51:51.866Z,7.17
2023-01-04T19:53:23.974Z,7.18
2023-01-04T19:54:56.004Z,7.15
2023-01-04T19:56:28.217Z,7.17
2023-01-04T19:58:00.554Z,7.17
2023-01-04T19:59:32.541Z,7.15
2023-01-04T20:01:05.275Z,7.18
2023-01-04T20:02:37.454Z,7.13
2023-01-04T20:04:09.861Z,7.16
2023-01-04T20:05:41.889Z,7.17
2023-01-04T20:07:14.004Z,7.15
2023-01-04T20:08:46.074Z,7.17
2023-01-04T20:10:18.211Z,7.17
2023-01-04T20:13:22.408Z,7.12
2023-01-04T20:14:54.476Z,7.13
2023-01-04T20:16:26.581Z,7.12
2023-01-04T20:17:58.637Z,7.12
2023-01-04T20:19:30.869Z,7.13
2023-01-04T20:21:03.025Z,7.11
2023-01-04T20:22:35.297Z,7.10
2023-01-04T20:24:07.666Z,7.12
2023-01-04T20:25:44.672Z,7.13
2023-01-04T20:27:16.738Z,7.08
2023-01-04T20:28:49.088Z,7.07
2023-01-04T20:30:21.185Z,7.06
2023-01-04T20:31:53.162Z,7.02
2023-01-04T20:33:25.185Z,7.01
2023-01-04T20:34:57.124Z,6.99
2023-01-04T20:36:31.810Z,6.99
2023-01-04T20:38:03.860Z,7.00
2023-01-04T20:39:35.948Z,6.99
2023-01-04T20:41:09.065Z,6.97
2023-01-04T20:42:59.617Z,6.96
2023-01-04T20:44:31.975Z,6.97
2023-01-04T20:46:10.779Z,6.89
2023-01-04T20:47:42.812Z,6.98
2023-01-04T20:49:14.826Z,6.95
2023-01-04T20:50:46.874Z,6.95
2023-01-04T20:52:18.887Z,6.94
2023-01-04T20:53:51.581Z,6.94
2023-01-04T20:55:23.588Z,6.90
2023-01-04T20:56:55.861Z,6.92
2023-01-04T20:58:27.874Z,6.91
2023-01-04T20:59:59.911Z,6.88
2023-01-04T21:01:32.277Z,6.86
2023-01-04T21:03:05.713Z,6.83
2023-01-04T21:04:37.915Z,6.81
2023-01-04T21:45:19.214Z,6.39
2023-01-04T21:46:51.459Z,6.30
2023-01-04T21:48:23.558Z,6.26
2023-01-04T21:49:55.671Z,6.24
2023-01-04T21:51:29.627Z,6.24
2023-01-04T21:53:01.652Z,6.19
2023-01-04T21:54:33.630Z,6.18
2023-01-04T21:56:12.591Z,6.21
2023-01-04T21:57:44.678Z,6.17
2023-01-04T21:59:19.073Z,6.17
2023-01-04T22:00:51.259Z,6.16
2023-01-04T22:02:23.347Z,6.12
2023-01-04T22:03:56.417Z,6.11
2023-01-04T22:05:28.516Z,6.08
2023-01-04T22:07:00.556Z,6.08
2023-01-04T22:08:32.767Z,6.04
2023-01-04T22:10:05.022Z,6.01
2023-01-04T22:11:37.352Z,6.01
2023-01-04T22:13:09.925Z,6.02
2023-01-04T22:14:41.973Z,6.00
2023-01-04T22:16:15.502Z,6.04
2023-01-04T22:17:48.260Z,6.04
2023-01-04T22:19:20.431Z,6.04
2023-01-04T22:21:21.332Z,6.06
2023-01-04T22:22:53.418Z,6.01
2023-01-04T22:24:26.760Z,6.01
2023-01-04T22:25:59.532Z,6.00
2023-01-04T22:27:31.721Z,5.98
2023-01-04T22:29:04.120Z,6.00
2023-01-04T22:30:41.143Z,6.03
2023-01-04T22:32:13.152Z,6.00
2023-01-04T22:33:45.265Z,6.01
2023-01-04T22:35:17.686Z,5.99
2023-01-04T22:36:49.739Z,6.01
2023-01-04T22:38:21.752Z,6.01
2023-01-04T22:39:53.763Z,6.01
2023-01-04T22:41:27.559Z,6.05
2023-01-04T22:42:59.540Z,6.02
2023-01-04T22:46:07.955Z,6.03
2023-01-04T22:47:39.977Z,6.00
2023-01-04T22:49:13.487Z,5.97